createdAt,value
2017-11-25T00:01:49.795Z,8.40
2017-11-25T00:04:17.758Z,8.40
2017-11-25T00:06:45.621Z,8.40
2017-11-25T00:09:13.492Z,8.30
2017-11-25T00:11:41.563Z,8.20
2017-11-25T00:14:09.508Z,8.10
2017-11-25T00:16:37.477Z,8.10
2017-11-25T00:19:05.546Z,8.10
2017-11-25T00:21:34.264Z,8.00
2017-11-25T00:24:02.072Z,8.00
2017-11-25T00:26:29.959Z,7.80
2017-11-25T00:28:57.954Z,7.90
2017-11-25T00:31:26.120Z,8.00
2017-11-25T00:33:54.177Z,8.10
2017-11-25T00:36:22.155Z,8.10
2017-11-25T00:38:50.219Z,8.20
2017-11-25T00:41:18.116Z,8.20
2017-11-25T00:43:45.972Z,8.30
2017-11-25T00:46:14.095Z,8.30
2017-11-25T00:48:42.099Z,8.30
2017-11-25T00:51:09.952Z,8.20
2017-11-25T00:53:37.826Z,8.20
2017-11-25T00:56:05.696Z,8.40
2017-11-25T00:58:33.683Z,8.60
2017-11-25T01:01:01.628Z,8.80
2017-11-25T01:03:29.578Z,8.80
2017-11-25T01:05:57.385Z,8.70
2017-11-25T01:08:25.250Z,8.50
2017-11-25T01:10:53.094Z,8.40
2017-11-25T01:13:20.988Z,8.30
2017-11-25T01:15:48.949Z,8.30
2017-11-25T01:18:17.115Z,8.30
2017-11-25T01:20:46.199Z,8.20
2017-11-25T01:23:15.008Z,8.30
2017-11-25T01:25:42.908Z,8.40
2017-11-25T01:28:11.766Z,8.40
2017-11-25T01:30:39.921Z,8.40
2017-11-25T01:33:07.782Z,8.50
2017-11-25T01:35:35.678Z,8.50
2017-11-25T01:38:03.720Z,8.70
2017-11-25T01:40:31.689Z,8.80
2017-11-25T01:43:00.288Z,8.80
2017-11-25T01:45:28.239Z,8.80
2017-11-25T01:47:56.210Z,8.80
2017-11-25T01:50:24.389Z,8.80
2017-11-25T01:52:52.560Z,8.90
2017-11-25T01:55:21.182Z,8.80
2017-11-25T01:57:49.930Z,9.00
2017-11-25T02:00:18.413Z,9.00
2017-11-25T02:02:46.199Z,8.90
2017-11-25T02:05:14.154Z,8.80
2017-11-25T02:07:42.139Z,8.60
2017-11-25T02:10:10.189Z,8.50
2017-11-25T02:12:38.152Z,8.40
2017-11-25T02:15:06.146Z,8.40
2017-11-25T02:17:34.029Z,8.40
2017-11-25T02:20:03.184Z,8.30
2017-11-25T02:22:31.008Z,8.30
2017-11-25T02:24:58.932Z,8.30
2017-11-25T02:27:27.006Z,8.30
2017-11-25T02:29:54.974Z,8.20
2017-11-25T02:32:23.049Z,8.20
2017-11-25T02:34:51.101Z,8.20
2017-11-25T02:37:19.273Z,8.20
2017-11-25T02:39:47.365Z,8.20
2017-11-25T02:42:15.624Z,8.20
2017-11-25T02:44:44.514Z,8.20
2017-11-25T02:47:12.591Z,8.20
2017-11-25T02:49:40.863Z,8.30
2017-11-25T02:52:08.741Z,8.30
2017-11-25T02:54:36.628Z,8.40
2017-11-25T02:57:05.378Z,8.40
2017-11-25T02:59:33.449Z,8.40
2017-11-25T03:02:01.305Z,8.50
2017-11-25T03:04:29.286Z,8.50
2017-11-25T03:06:57.431Z,8.60
2017-11-25T03:09:25.369Z,8.60
2017-11-25T03:11:54.319Z,8.60
2017-11-25T03:14:22.199Z,8.60
2017-11-25T03:16:50.151Z,8.60
2017-11-25T03:19:18.103Z,8.60
2017-11-25T03:21:45.871Z,8.60
2017-11-25T03:24:13.772Z,8.60
2017-11-25T03:26:41.641Z,8.50
2017-11-25T03:29:09.596Z,8.50
2017-11-25T03:31:37.477Z,8.40
2017-11-25T03:34:05.447Z,8.40
2017-11-25T03:36:33.595Z,8.30
2017-11-25T03:39:02.003Z,8.30
2017-11-25T03:41:30.041Z,8.30
2017-11-25T03:43:57.930Z,8.30
2017-11-25T03:46:25.895Z,8.20
2017-11-25T03:48:53.941Z,8.20
2017-11-25T03:51:21.820Z,8.30
2017-11-25T03:53:49.810Z,8.50
2017-11-25T03:56:17.751Z,8.50
2017-11-25T03:58:46.034Z,8.50
2017-11-25T04:01:14.003Z,8.40
2017-11-25T04:03:41.969Z,8.30
2017-11-25T04:06:10.062Z,8.20
2017-11-25T04:08:38.045Z,8.20
2017-11-25T04:11:06.000Z,8.30
2017-11-25T04:13:33.857Z,8.30
2017-11-25T04:16:02.428Z,8.30
2017-11-25T04:18:30.490Z,8.20
2017-11-25T04:20:58.402Z,8.40
2017-11-25T04:23:27.133Z,8.40
2017-11-25T04:25:55.244Z,8.40
2017-11-25T04:28:23.213Z,8.20
2017-11-25T04:30:51.290Z,8.10
2017-11-25T04:33:19.134Z,8.20
2017-11-25T04:35:47.226Z,8.10
2017-11-25T04:38:15.050Z,7.90
2017-11-25T04:40:42.938Z,7.70
2017-11-25T04:43:11.749Z,7.60
2017-11-25T04:45:39.841Z,7.40
2017-11-25T04:48:08.381Z,6.90
2017-11-25T04:50:36.295Z,6.90
2017-11-25T04:53:05.052Z,7.10
2017-11-25T04:55:32.912Z,7.00
2017-11-25T04:58:00.865Z,7.00
2017-11-25T05:00:28.855Z,6.70
2017-11-25T05:02:56.855Z,6.60
2017-11-25T05:05:24.961Z,6.70
2017-11-25T05:07:53.058Z,6.50
2017-11-25T05:10:21.020Z,6.40
2017-11-25T05:12:48.962Z,6.60
2017-11-25T05:15:16.963Z,6.60
2017-11-25T05:17:44.930Z,6.70
2017-11-25T05:20:12.968Z,6.70
2017-11-25T05:22:40.966Z,6.60
2017-11-25T05:25:08.833Z,6.50
2017-11-25T05:27:36.794Z,6.40
2017-11-25T05:30:04.786Z,6.30
2017-11-25T05:32:32.547Z,6.30
2017-11-25T05:35:01.025Z,6.30
2017-11-25T05:37:28.821Z,6.10
2017-11-25T05:39:57.576Z,5.80
2017-11-25T05:42:25.965Z,5.80
2017-11-25T05:44:53.728Z,5.80
2017-11-25T05:47:21.587Z,5.80
2017-11-25T05:49:49.712Z,5.90
2017-11-25T05:52:17.612Z,6.00
2017-11-25T05:54:45.496Z,6.00
2017-11-25T05:57:13.573Z,6.00
2017-11-25T05:59:41.540Z,6.00
2017-11-25T06:02:09.490Z,5.90
2017-11-25T06:04:37.455Z,5.80
2017-11-25T06:07:05.426Z,5.80
2017-11-25T06:09:33.416Z,5.90
2017-11-25T06:12:01.466Z,5.90
2017-11-25T06:14:29.354Z,6.00
2017-11-25T06:16:57.423Z,6.10
2017-11-25T06:19:26.094Z,6.20
2017-11-25T06:21:54.190Z,6.30
2017-11-25T06:24:22.112Z,6.40
2017-11-25T06:26:50.201Z,6.40
2017-11-25T06:29:18.193Z,6.40
2017-11-25T06:31:46.152Z,6.40
2017-11-25T06:34:14.107Z,6.40
2017-11-25T06:36:42.103Z,6.30
2017-11-25T06:39:10.048Z,6.40
2017-11-25T06:41:38.009Z,6.50
2017-11-25T06:44:05.999Z,6.50
2017-11-25T06:46:33.846Z,6.40
2017-11-25T06:49:01.680Z,6.40
2017-11-25T06:51:29.560Z,6.40
2017-11-25T06:53:57.553Z,6.40
2017-11-25T06:56:25.741Z,6.30
2017-11-25T06:58:54.272Z,6.40
2017-11-25T07:01:22.174Z,6.30
2017-11-25T07:03:50.141Z,6.40
2017-11-25T07:06:18.416Z,6.40
2017-11-25T07:08:46.208Z,6.40
2017-11-25T07:11:14.164Z,6.50
2017-11-25T07:13:42.021Z,6.60
2017-11-25T07:16:09.901Z,6.70
2017-11-25T07:18:37.854Z,6.70
2017-11-25T07:21:05.723Z,6.60
2017-11-25T07:23:33.687Z,6.70
2017-11-25T07:26:01.658Z,6.70
2017-11-25T07:28:29.582Z,6.80
2017-11-25T07:30:58.623Z,7.10
2017-11-25T07:33:26.506Z,7.10
2017-11-25T07:35:54.469Z,7.30
2017-11-25T07:38:22.428Z,7.30
2017-11-25T07:40:51.398Z,7.40
2017-11-25T07:43:19.951Z,7.50
2017-11-25T07:45:48.559Z,7.70
2017-11-25T07:48:16.891Z,7.70
2017-11-25T07:50:45.683Z,7.80
2017-11-25T07:53:13.756Z,7.70
2017-11-25T07:55:41.788Z,7.80
2017-11-25T07:58:09.662Z,7.80
2017-11-25T08:00:38.144Z,7.90
2017-11-25T08:03:06.130Z,8.00
2017-11-25T08:05:34.715Z,8.20
2017-11-25T08:08:02.580Z,8.10
2017-11-25T08:10:30.374Z,8.30
2017-11-25T08:13:14.994Z,8.40
2017-11-25T08:15:43.169Z,8.40
2017-11-25T08:18:11.133Z,8.60
2017-11-25T08:20:39.346Z,8.80
2017-11-25T08:23:08.277Z,9.40
2017-11-25T08:25:36.369Z,9.40
2017-11-25T08:28:04.327Z,9.60
2017-11-25T08:30:32.509Z,9.70
2017-11-25T08:33:00.486Z,9.70
2017-11-25T08:35:28.437Z,9.70
2017-11-25T08:37:56.441Z,9.70
2017-11-25T08:40:25.044Z,9.10
2017-11-25T08:42:53.721Z,8.90
2017-11-25T08:45:23.070Z,8.80
2017-11-25T08:47:51.473Z,8.80
2017-11-25T08:50:20.070Z,8.60
2017-11-25T08:52:47.854Z,8.60
2017-11-25T08:55:17.048Z,8.50
2017-11-25T08:57:46.101Z,8.50
2017-11-25T09:00:14.519Z,8.50
2017-11-25T09:02:43.163Z,8.30
2017-11-25T09:05:11.158Z,8.40
2017-11-25T09:07:39.625Z,8.30
2017-11-25T09:10:07.618Z,8.20
2017-11-25T09:12:36.496Z,8.20
2017-11-25T09:15:04.368Z,8.20
2017-11-25T09:17:33.422Z,8.10
2017-11-25T09:20:01.427Z,8.00
2017-11-25T09:22:29.388Z,7.90
2017-11-25T09:24:57.338Z,7.90
2017-11-25T09:27:25.346Z,7.90
2017-11-25T09:29:54.204Z,7.90
2017-11-25T09:32:22.289Z,7.90
2017-11-25T09:34:50.336Z,7.90
2017-11-25T09:37:18.428Z,7.90
2017-11-25T09:39:46.787Z,7.70
2017-11-25T09:42:14.963Z,7.60
2017-11-25T09:44:42.913Z,7.50
2017-11-25T09:47:10.796Z,7.40
2017-11-25T09:49:39.229Z,7.30
2017-11-25T09:52:08.083Z,7.30
2017-11-25T09:54:35.936Z,7.20
2017-11-25T09:57:03.754Z,7.20
2017-11-25T09:59:32.331Z,7.20
2017-11-25T10:02:00.986Z,7.10
2017-11-25T10:04:28.735Z,7.10
2017-11-25T10:06:56.526Z,7.10
2017-11-25T10:09:24.390Z,7.10
2017-11-25T10:11:52.244Z,7.10
2017-11-25T10:14:20.293Z,7.00
2017-11-25T10:16:48.082Z,7.00
2017-11-25T10:19:15.829Z,6.90
2017-11-25T10:21:43.608Z,6.90
2017-11-25T10:24:11.370Z,6.80
2017-11-25T10:26:39.264Z,6.80
2017-11-25T10:29:07.921Z,6.70
2017-11-25T10:31:35.794Z,6.70
2017-11-25T10:34:03.648Z,6.70
2017-11-25T10:36:31.500Z,6.60
2017-11-25T10:38:59.415Z,6.50
2017-11-25T10:41:28.158Z,6.30
2017-11-25T10:43:56.068Z,6.30
2017-11-25T10:46:24.730Z,6.30
2017-11-25T10:48:52.575Z,6.30
2017-11-25T10:51:20.341Z,6.30
2017-11-25T10:53:49.122Z,6.30
2017-11-25T10:56:16.891Z,6.30
2017-11-25T10:58:44.639Z,6.30
2017-11-25T11:01:12.454Z,6.20
2017-11-25T11:03:41.186Z,6.20
2017-11-25T11:06:09.203Z,6.20
2017-11-25T11:08:37.082Z,6.20
2017-11-25T11:11:05.754Z,6.20
2017-11-25T11:13:33.743Z,6.20
2017-11-25T11:16:02.616Z,6.10
2017-11-25T11:18:30.556Z,6.00
2017-11-25T11:20:58.436Z,6.00
2017-11-25T11:23:26.227Z,6.00
2017-11-25T11:25:54.871Z,5.80
2017-11-25T11:28:23.045Z,5.80
2017-11-25T11:30:50.798Z,5.80
2017-11-25T11:33:18.590Z,5.70
2017-11-25T11:35:46.369Z,5.60
2017-11-25T11:38:14.223Z,5.60
2017-11-25T11:40:42.197Z,5.60
2017-11-25T11:43:10.041Z,5.60
2017-11-25T11:45:37.906Z,5.60
2017-11-25T11:48:05.686Z,5.60
2017-11-25T11:50:33.491Z,5.50
2017-11-25T11:53:03.179Z,5.40
2017-11-25T11:55:31.113Z,5.40
2017-11-25T11:57:58.897Z,5.40
2017-11-25T12:00:26.768Z,5.40
2017-11-25T12:02:54.597Z,5.40
2017-11-25T12:05:23.600Z,5.30
2017-11-25T12:07:51.486Z,5.30
2017-11-25T12:10:19.537Z,5.20
2017-11-25T12:12:47.420Z,5.20
2017-11-25T12:15:15.284Z,5.20
2017-11-25T12:17:43.053Z,5.20
2017-11-25T12:20:11.021Z,5.20
2017-11-25T12:22:39.176Z,5.30
2017-11-25T12:25:07.884Z,5.30
2017-11-25T12:27:35.938Z,5.30
2017-11-25T12:30:03.919Z,5.30
2017-11-25T12:32:31.800Z,5.30
2017-11-25T12:35:00.557Z,5.20
2017-11-25T12:37:28.528Z,5.10
2017-11-25T12:39:56.319Z,5.20
2017-11-25T12:42:24.177Z,5.20
2017-11-25T12:44:52.027Z,5.20
2017-11-25T12:47:19.854Z,5.20
2017-11-25T12:49:47.679Z,5.30
2017-11-25T12:52:15.627Z,5.30
2017-11-25T12:54:43.594Z,5.30
2017-11-25T12:57:11.483Z,5.30
2017-11-25T12:59:39.278Z,5.40
2017-11-25T13:02:07.936Z,5.40
2017-11-25T13:04:35.712Z,5.40
2017-11-25T13:07:04.371Z,5.40
2017-11-25T13:09:32.337Z,5.40
2017-11-25T13:12:00.205Z,5.40
2017-11-25T13:14:28.079Z,5.40
2017-11-25T13:16:55.941Z,5.40
2017-11-25T13:19:23.741Z,5.30
2017-11-25T13:21:52.394Z,5.40
2017-11-25T13:24:20.168Z,5.40
2017-11-25T13:26:48.045Z,5.40
2017-11-25T13:29:16.802Z,5.50
2017-11-25T13:31:44.573Z,5.40
2017-11-25T13:34:12.487Z,5.50
2017-11-25T13:36:40.329Z,5.40
2017-11-25T13:39:08.919Z,5.50
2017-11-25T13:41:37.540Z,5.50
2017-11-25T13:44:05.542Z,5.50
2017-11-25T13:46:33.429Z,5.50
2017-11-25T13:49:01.275Z,5.50
2017-11-25T13:51:29.234Z,5.60
2017-11-25T13:53:57.195Z,5.60
2017-11-25T13:56:25.097Z,5.60
2017-11-25T13:58:53.797Z,5.60
2017-11-25T14:01:21.818Z,5.60
2017-11-25T14:03:49.812Z,5.60
2017-11-25T14:06:17.659Z,5.60
2017-11-25T14:08:45.567Z,5.60
2017-11-25T14:11:14.249Z,5.60
2017-11-25T14:13:42.920Z,5.60
2017-11-25T14:16:11.507Z,5.60
2017-11-25T14:18:40.078Z,5.70
2017-11-25T14:21:07.897Z,5.60
2017-11-25T14:23:35.789Z,5.60
2017-11-25T14:26:03.571Z,5.70
2017-11-25T14:28:31.543Z,5.70
2017-11-25T14:30:59.405Z,5.70
2017-11-25T14:33:27.267Z,6.00
2017-11-25T14:35:55.248Z,6.30
2017-11-25T14:38:23.191Z,6.40
2017-11-25T14:40:51.201Z,6.20
2017-11-25T14:43:19.765Z,6.00
2017-11-25T14:45:47.838Z,6.00
2017-11-25T14:48:15.817Z,6.00
2017-11-25T14:50:45.193Z,5.90
2017-11-25T14:53:13.381Z,5.80
2017-11-25T14:55:41.211Z,5.80
2017-11-25T14:58:08.979Z,5.80
2017-11-25T15:00:37.075Z,5.80
2017-11-25T15:03:05.139Z,5.70
2017-11-25T15:05:33.107Z,5.80
2017-11-25T15:08:00.981Z,5.70
2017-11-25T15:10:28.868Z,5.70
2017-11-25T15:12:56.840Z,5.70
2017-11-25T15:15:24.705Z,5.70
2017-11-25T15:17:53.390Z,5.70
2017-11-25T15:20:22.249Z,5.70
2017-11-25T15:22:50.217Z,5.60
2017-11-25T15:25:18.105Z,5.60
2017-11-25T15:27:46.075Z,5.60
2017-11-25T15:30:14.122Z,5.60
2017-11-25T15:32:42.300Z,5.60
2017-11-25T15:35:10.077Z,5.60
2017-11-25T15:37:38.030Z,5.60
2017-11-25T15:40:05.871Z,5.60
2017-11-25T15:42:33.868Z,5.60
2017-11-25T15:45:01.888Z,5.60
2017-11-25T15:47:30.573Z,5.60
2017-11-25T15:49:59.408Z,5.60
2017-11-25T15:52:27.303Z,5.60
2017-11-25T15:54:55.171Z,5.60
2017-11-25T15:57:23.134Z,5.60
2017-11-25T15:59:50.918Z,5.60
2017-11-25T16:02:19.576Z,5.60
2017-11-25T16:04:47.459Z,5.50
2017-11-25T16:07:16.113Z,5.50
2017-11-25T16:09:45.004Z,5.50
2017-11-25T16:12:12.797Z,5.50
2017-11-25T16:14:40.659Z,5.50
2017-11-25T16:17:08.517Z,5.50
2017-11-25T16:19:36.499Z,5.60
2017-11-25T16:22:04.378Z,5.50
2017-11-25T16:24:32.954Z,5.30
2017-11-25T16:27:01.614Z,5.30
2017-11-25T16:29:29.497Z,5.30
2017-11-25T16:31:57.395Z,5.50
2017-11-25T16:34:25.230Z,5.50
2017-11-25T16:36:53.292Z,5.70
2017-11-25T16:39:21.270Z,5.50
2017-11-25T16:41:49.128Z,5.50
2017-11-25T16:44:17.705Z,5.40
2017-11-25T16:46:45.680Z,5.40
2017-11-25T16:49:13.494Z,5.50
2017-11-25T16:51:41.483Z,5.50
2017-11-25T16:54:09.239Z,5.40
2017-11-25T16:56:37.231Z,5.40
2017-11-25T16:59:05.045Z,5.40
2017-11-25T17:01:33.607Z,5.40
2017-11-25T17:04:01.546Z,5.40
2017-11-25T17:06:29.630Z,5.50
2017-11-25T17:08:57.385Z,5.60
2017-11-25T17:11:25.346Z,5.70
2017-11-25T17:13:53.317Z,5.70
2017-11-25T17:16:21.088Z,5.80
2017-11-25T17:18:48.947Z,5.80
2017-11-25T17:21:16.814Z,5.90
2017-11-25T17:23:44.745Z,5.90
2017-11-25T17:26:12.699Z,5.70
2017-11-25T17:28:41.372Z,5.30
2017-11-25T17:31:09.329Z,5.30
2017-11-25T17:33:37.106Z,5.20
2017-11-25T17:36:05.771Z,5.20
2017-11-25T17:38:33.588Z,5.20
2017-11-25T17:41:01.501Z,5.30
2017-11-25T17:43:29.383Z,5.30
2017-11-25T17:45:57.276Z,5.30
2017-11-25T17:48:26.026Z,5.30
2017-11-25T17:50:53.895Z,5.20
2017-11-25T17:53:22.434Z,5.30
2017-11-25T17:55:50.358Z,5.10
2017-11-25T17:58:18.291Z,4.90
2017-11-25T18:00:46.059Z,4.70
2017-11-25T18:03:13.939Z,4.60
2017-11-25T18:05:41.882Z,4.60
2017-11-25T18:08:09.782Z,4.60
2017-11-25T18:10:37.548Z,4.60
2017-11-25T18:13:05.514Z,4.60
2017-11-25T18:15:33.377Z,4.70
2017-11-25T18:18:01.344Z,4.70
2017-11-25T18:20:29.300Z,4.70
2017-11-25T18:22:57.257Z,4.70
2017-11-25T18:25:25.228Z,4.70
2017-11-25T18:27:53.207Z,4.70
2017-11-25T18:30:21.082Z,4.70
2017-11-25T18:32:50.404Z,4.60
2017-11-25T18:35:18.478Z,4.60
2017-11-25T18:37:47.333Z,4.70
2017-11-25T18:40:15.318Z,4.70
2017-11-25T18:42:43.288Z,4.70
2017-11-25T18:45:11.228Z,4.70
2017-11-25T18:47:39.126Z,4.70
2017-11-25T18:50:08.517Z,4.80
2017-11-25T18:52:36.391Z,4.80
2017-11-25T18:55:04.253Z,4.80
2017-11-25T18:57:32.406Z,4.80
2017-11-25T19:00:00.301Z,4.80
2017-11-25T19:02:29.165Z,4.80
2017-11-25T19:04:57.067Z,4.70
2017-11-25T19:07:24.996Z,4.70
2017-11-25T19:09:52.806Z,4.90
2017-11-25T19:12:21.549Z,4.90
2017-11-25T19:14:49.553Z,4.90
2017-11-25T19:17:17.591Z,5.00
2017-11-25T19:19:45.445Z,5.00
2017-11-25T19:22:13.358Z,5.40
2017-11-25T19:24:41.191Z,5.30
2017-11-25T19:27:09.167Z,5.10
2017-11-25T19:29:37.032Z,5.00
2017-11-25T19:32:05.103Z,5.00
2017-11-25T19:34:33.166Z,5.10
2017-11-25T19:37:00.973Z,5.20
2017-11-25T19:39:29.845Z,5.00
2017-11-25T19:41:58.884Z,5.00
2017-11-25T19:44:27.114Z,5.00
2017-11-25T19:46:56.148Z,5.00
2017-11-25T19:49:25.570Z,4.90
2017-11-25T19:51:53.953Z,5.00
2017-11-25T19:54:21.951Z,5.10
2017-11-25T19:56:49.832Z,5.20
2017-11-25T19:59:19.309Z,5.20
2017-11-25T20:01:47.305Z,5.10
2017-11-25T20:04:15.230Z,5.10
2017-11-25T20:06:43.358Z,5.20
2017-11-25T20:09:11.988Z,5.20
2017-11-25T20:11:40.199Z,5.20
2017-11-25T20:14:08.477Z,5.30
2017-11-25T20:16:36.491Z,5.30
2017-11-25T20:19:04.507Z,5.40
2017-11-25T20:21:33.944Z,5.40
2017-11-25T20:24:02.081Z,5.40
2017-11-25T20:26:30.345Z,5.40
2017-11-25T20:28:58.555Z,5.40
2017-11-25T20:31:27.773Z,5.40
2017-11-25T20:33:55.991Z,5.40
2017-11-25T20:36:24.423Z,5.40
2017-11-25T20:38:52.689Z,5.30
2017-11-25T20:41:21.820Z,5.20
2017-11-25T20:43:49.919Z,5.20
2017-11-25T20:46:17.893Z,5.30
2017-11-25T20:48:45.936Z,5.20
2017-11-25T20:51:13.929Z,5.20
2017-11-25T20:53:42.195Z,5.10
2017-11-25T20:56:10.408Z,5.20
2017-11-25T20:58:39.200Z,5.20
2017-11-25T21:01:07.228Z,5.20
2017-11-25T21:03:35.608Z,5.20
2017-11-25T21:06:04.517Z,5.20
2017-11-25T21:08:33.429Z,5.10
2017-11-25T21:11:02.118Z,5.10
2017-11-25T21:13:31.071Z,5.00
2017-11-25T21:15:59.350Z,5.00
2017-11-25T21:18:27.833Z,5.00
2017-11-25T21:20:55.893Z,4.90
2017-11-25T21:23:23.889Z,4.90
2017-11-25T21:25:51.853Z,4.90
2017-11-25T21:28:19.713Z,5.00
2017-11-25T21:30:47.599Z,4.90
2017-11-25T21:33:15.440Z,5.00
2017-11-25T21:35:43.439Z,5.00
2017-11-25T21:38:12.185Z,5.00
2017-11-25T21:40:40.361Z,4.90
2017-11-25T21:43:08.472Z,4.90
2017-11-25T21:45:37.349Z,5.20
2017-11-25T21:48:05.160Z,5.20
2017-11-25T21:50:33.097Z,5.20
2017-11-25T21:53:01.950Z,5.20
2017-11-25T21:55:29.831Z,5.20
2017-11-25T21:57:57.799Z,5.10
2017-11-25T22:00:25.678Z,5.10
2017-11-25T22:02:53.556Z,5.10
2017-11-25T22:05:22.224Z,5.00
2017-11-25T22:07:50.269Z,4.90
2017-11-25T22:10:18.269Z,5.00
2017-11-25T22:12:46.934Z,4.90
2017-11-25T22:15:15.086Z,4.90
2017-11-25T22:17:43.176Z,4.80
2017-11-25T22:20:11.239Z,4.90
2017-11-25T22:22:39.320Z,4.90
2017-11-25T22:25:07.321Z,4.80
2017-11-25T22:27:36.011Z,4.80
2017-11-25T22:30:05.173Z,4.90
2017-11-25T22:32:33.391Z,4.90
2017-11-25T22:35:02.338Z,4.80
2017-11-25T22:37:30.450Z,4.80
2017-11-25T22:39:59.196Z,4.80
2017-11-25T22:42:27.164Z,4.80
2017-11-25T22:44:55.229Z,4.80
2017-11-25T22:47:23.326Z,4.70
2017-11-25T22:49:51.088Z,4.70
2017-11-25T22:52:19.242Z,4.70
2017-11-25T22:54:47.126Z,4.70
2017-11-25T22:57:15.181Z,4.70
2017-11-25T22:59:43.048Z,4.60
2017-11-25T23:02:10.908Z,4.50
2017-11-25T23:04:38.688Z,4.20
2017-11-25T23:07:07.302Z,3.80
2017-11-25T23:09:36.042Z,3.10
2017-11-25T23:12:03.927Z,3.10
2017-11-25T23:14:31.802Z,3.00
2017-11-25T23:16:59.678Z,2.80
2017-11-25T23:19:28.331Z,2.60
2017-11-25T23:21:56.216Z,2.60
2017-11-25T23:24:24.021Z,2.60
2017-11-25T23:26:51.931Z,2.60
2017-11-25T23:29:20.036Z,2.60
2017-11-25T23:31:48.920Z,2.50
2017-11-25T23:34:16.855Z,2.50
2017-11-25T23:36:45.013Z,2.50
2017-11-25T23:39:13.208Z,2.40
2017-11-25T23:41:41.078Z,2.30
2017-11-25T23:44:09.266Z,2.40
2017-11-25T23:46:37.143Z,2.30
2017-11-25T23:49:05.897Z,2.20
2017-11-25T23:51:33.793Z,2.10
2017-11-25T23:54:02.576Z,2.10
2017-11-25T23:56:30.455Z,2.00
2017-11-25T23:58:59.126Z,1.70
